createdAt,value
2022-11-06T00:00:58.188Z,2.80
2022-11-06T00:06:18.548Z,2.80
2022-11-06T00:11:21.853Z,2.60
2022-11-06T00:16:26.297Z,2.40
2022-11-06T00:21:31.576Z,2.00
2022-11-06T00:26:35.890Z,2.30
2022-11-06T00:31:40.255Z,2.20
2022-11-06T00:36:43.278Z,2.40
2022-11-06T00:41:46.294Z,2.10
2022-11-06T00:46:50.637Z,2.63
2022-11-06T00:51:53.704Z,2.13
2022-11-06T00:56:56.711Z,2.13
2022-11-06T01:30:36.043Z,2.07
2022-11-06T01:35:45.669Z,1.83
2022-11-06T01:40:50.059Z,2.00
2022-11-06T01:45:54.446Z,2.53
2022-11-06T01:50:59.755Z,2.23
2022-11-06T01:56:05.699Z,1.93
2022-11-06T02:01:09.111Z,2.00
2022-11-06T02:06:14.163Z,1.87
2022-11-06T02:11:17.170Z,2.17
2022-11-06T02:16:32.484Z,2.13
2022-11-06T02:22:05.155Z,2.33
2022-11-06T02:27:13.646Z,2.20
2022-11-06T02:32:22.595Z,2.60
2022-11-06T02:37:30.342Z,1.80
2022-11-06T02:42:38.450Z,1.93
2022-11-06T02:47:42.741Z,2.00
2022-11-06T02:52:51.595Z,1.80
2022-11-06T02:58:01.758Z,2.20
2022-11-06T03:03:11.526Z,1.93
2022-11-06T03:08:18.997Z,1.50
2022-11-06T03:13:28.835Z,1.57
2022-11-06T03:18:38.255Z,1.80
2022-11-06T03:23:48.414Z,2.10
2022-11-06T03:28:57.159Z,1.97
2022-11-06T03:34:05.605Z,2.50
2022-11-06T03:39:12.431Z,2.20
2022-11-06T03:44:20.468Z,2.57
2022-11-06T03:49:29.675Z,2.20
2022-11-06T03:54:36.969Z,2.20
2022-11-06T03:59:45.694Z,2.10
2022-11-06T04:04:52.206Z,1.77
2022-11-06T04:10:17.543Z,1.80
2022-11-06T04:15:23.909Z,1.77
2022-11-06T04:20:53.776Z,1.83
2022-11-06T04:26:24.274Z,1.53
2022-11-06T04:31:37.843Z,1.90
2022-11-06T04:36:46.944Z,1.70
2022-11-06T04:41:56.370Z,2.00
2022-11-06T04:47:03.083Z,1.90
2022-11-06T04:52:10.752Z,1.80
2022-11-06T04:57:14.256Z,1.80
2022-11-06T05:02:18.722Z,1.53
2022-11-06T05:07:21.848Z,1.50
2022-11-06T05:12:24.903Z,1.60
2022-11-06T05:17:32.689Z,1.57
2022-11-06T05:23:01.196Z,1.43
2022-11-06T05:28:07.046Z,1.60
2022-11-06T05:33:11.801Z,1.33
2022-11-06T05:38:15.174Z,1.30
2022-11-06T05:43:18.332Z,1.60
2022-11-06T05:48:22.932Z,1.50
2022-11-06T05:53:25.887Z,1.70
2022-11-06T05:58:29.476Z,1.70
2022-11-06T06:03:33.895Z,1.70
2022-11-06T06:08:36.879Z,1.50
2022-11-06T06:13:39.844Z,1.23
2022-11-06T06:18:44.189Z,1.40
2022-11-06T06:23:47.312Z,1.13
2022-11-06T06:28:50.417Z,1.40
2022-11-06T06:33:54.779Z,1.33
2022-11-06T06:38:57.807Z,1.27
2022-11-06T06:44:00.811Z,1.10
2022-11-06T06:49:05.230Z,1.00
2022-11-06T06:54:08.473Z,1.40
2022-11-06T06:59:11.414Z,1.63
2022-11-06T07:04:16.271Z,1.80
2022-11-06T07:09:19.325Z,2.10
2022-11-06T07:14:22.348Z,1.87
2022-11-06T07:19:26.727Z,1.90
2022-11-06T07:24:30.059Z,2.20
2022-11-06T07:29:33.009Z,2.23
2022-11-06T07:34:38.844Z,2.10
2022-11-06T07:39:41.827Z,2.20
2022-11-06T07:44:44.720Z,3.10
2022-11-06T07:49:51.048Z,2.90
2022-11-06T07:54:54.315Z,2.80
2022-11-06T07:59:57.243Z,3.40
2022-11-06T08:05:01.519Z,2.50
2022-11-06T08:10:05.105Z,3.13
2022-11-06T08:15:08.953Z,2.80
2022-11-06T08:20:13.436Z,3.53
2022-11-06T08:25:16.579Z,2.47
2022-11-06T08:30:19.516Z,2.40
2022-11-06T08:35:23.903Z,2.47
2022-11-06T08:40:30.887Z,2.77
2022-11-06T08:45:37.373Z,2.90
2022-11-06T08:50:42.411Z,2.90
2022-11-06T08:55:45.418Z,2.60
2022-11-06T09:00:48.545Z,2.30
2022-11-06T09:05:52.925Z,2.10
2022-11-06T09:10:58.604Z,2.30
2022-11-06T09:16:02.150Z,2.00
2022-11-06T09:21:06.762Z,2.10
2022-11-06T09:26:09.730Z,1.70
2022-11-06T09:31:12.916Z,2.10
2022-11-06T09:36:17.246Z,1.87
2022-11-06T09:41:27.061Z,2.20
2022-11-06T09:46:32.823Z,1.93
2022-11-06T09:51:42.710Z,1.90
2022-11-06T09:56:49.118Z,1.70
2022-11-06T10:01:56.243Z,1.87
2022-11-06T10:07:00.668Z,1.97
2022-11-06T10:12:13.970Z,1.97
2022-11-06T10:17:29.954Z,2.00
2022-11-06T10:22:39.835Z,1.80
2022-11-06T10:27:46.907Z,2.00
2022-11-06T10:33:04.430Z,2.20
2022-11-06T10:38:13.596Z,2.70
2022-11-06T10:43:27.537Z,2.23
2022-11-06T10:48:35.721Z,2.40
2022-11-06T10:53:51.651Z,2.67
2022-11-06T10:58:55.000Z,2.17
2022-11-06T11:03:58.055Z,2.30
2022-11-06T11:09:02.893Z,2.40
2022-11-06T11:14:23.589Z,2.43
2022-11-06T11:19:34.330Z,2.13
2022-11-06T11:24:38.966Z,2.30
2022-11-06T11:29:45.695Z,1.80
2022-11-06T11:34:56.451Z,2.10
2022-11-06T11:40:21.818Z,1.80
2022-11-06T11:45:24.795Z,2.03
2022-11-06T11:50:31.499Z,2.10
2022-11-06T11:55:40.129Z,1.60
2022-11-06T12:00:54.298Z,1.30
2022-11-06T12:06:07.475Z,1.97
2022-11-06T12:11:16.349Z,1.93
2022-11-06T12:16:21.161Z,1.90
2022-11-06T12:21:28.975Z,1.60
2022-11-06T12:26:39.489Z,1.97
2022-11-06T12:31:46.185Z,1.80
2022-11-06T12:37:18.863Z,1.90
2022-11-06T12:42:26.595Z,2.10
2022-11-06T12:47:43.326Z,2.80
2022-11-06T12:53:12.902Z,2.00
2022-11-06T12:58:41.621Z,2.03
2022-11-06T13:18:16.147Z,2.30
2022-11-06T13:23:28.424Z,1.80
2022-11-06T13:28:36.370Z,2.43
2022-11-06T13:33:47.129Z,2.20
2022-11-06T13:38:55.041Z,2.10
2022-11-06T13:44:01.906Z,1.60
2022-11-06T13:49:17.940Z,2.00
2022-11-06T13:54:42.485Z,1.57
2022-11-06T14:00:02.651Z,2.00
2022-11-06T14:05:44.882Z,1.80
2022-11-06T14:10:53.809Z,1.83
2022-11-06T14:16:26.747Z,2.20
2022-11-06T14:21:52.941Z,1.90
2022-11-06T14:26:56.578Z,1.90
2022-11-06T14:32:01.184Z,1.40
2022-11-06T14:37:49.628Z,1.20
2022-11-06T14:42:52.647Z,1.40
2022-11-06T14:47:56.797Z,1.53
2022-11-06T14:53:04.355Z,1.53
2022-11-06T14:58:18.308Z,1.20
2022-11-06T15:03:25.724Z,1.27
2022-11-06T15:08:58.266Z,1.20
2022-11-06T15:14:34.650Z,1.20
2022-11-06T15:19:42.281Z,1.10
2022-11-06T15:24:53.391Z,1.70
2022-11-06T15:30:01.220Z,1.23
2022-11-06T15:35:08.098Z,1.13
2022-11-06T15:40:24.884Z,1.67
2022-11-06T15:45:29.940Z,1.13
2022-11-06T15:50:33.875Z,1.50
2022-11-06T15:55:40.601Z,1.53
2022-11-06T16:00:44.192Z,1.27
2022-11-06T16:05:48.521Z,1.47
2022-11-06T16:10:53.800Z,1.33
2022-11-06T16:15:58.927Z,1.37
2022-11-06T16:21:10.467Z,1.20
2022-11-06T16:26:17.764Z,1.10
2022-11-06T16:31:23.662Z,1.40
2022-11-06T16:36:28.119Z,1.60
2022-11-06T16:42:00.793Z,1.47
2022-11-06T16:47:18.187Z,1.63
2022-11-06T16:52:25.649Z,1.60
2022-11-06T16:57:33.454Z,1.40
2022-11-06T17:02:39.075Z,1.77
2022-11-06T17:07:43.880Z,1.60
2022-11-06T17:12:48.350Z,1.50
2022-11-06T17:17:51.785Z,2.03
2022-11-06T17:22:54.861Z,2.40
2022-11-06T17:27:59.504Z,1.77
2022-11-06T17:33:05.695Z,1.90
2022-11-06T17:38:09.361Z,1.60
2022-11-06T17:43:14.315Z,1.83
2022-11-06T17:48:18.216Z,1.43
2022-11-06T17:53:21.196Z,1.50
2022-11-06T17:58:25.595Z,1.30
2022-11-06T18:03:31.224Z,1.47
2022-11-06T18:08:38.605Z,1.53
2022-11-06T18:13:45.289Z,1.77
2022-11-06T18:18:48.711Z,1.60
2022-11-06T18:23:52.229Z,1.90
2022-11-06T18:28:56.699Z,1.80
2022-11-06T18:33:59.775Z,1.50
2022-11-06T18:39:03.361Z,2.00
2022-11-06T18:44:07.754Z,1.77
2022-11-06T18:49:12.155Z,1.33
2022-11-06T18:54:15.244Z,1.30
2022-11-06T18:59:20.958Z,1.50
2022-11-06T19:04:24.084Z,1.20
2022-11-06T19:09:28.181Z,1.97
2022-11-06T19:14:33.556Z,1.63
2022-11-06T19:19:36.524Z,1.60
2022-11-06T19:24:39.591Z,1.80
2022-11-06T19:29:43.931Z,1.50
2022-11-06T19:34:46.984Z,1.77
2022-11-06T19:39:49.993Z,1.70
2022-11-06T19:44:56.294Z,1.73
2022-11-06T19:50:00.006Z,1.50
2022-11-06T19:55:25.468Z,1.60
2022-11-06T20:00:27.500Z,2.20
2022-11-06T20:05:30.541Z,1.70
2022-11-06T20:10:34.934Z,1.60
2022-11-06T20:15:39.323Z,1.67
2022-11-06T20:20:42.315Z,1.60
2022-11-06T20:25:45.260Z,1.53
2022-11-06T20:30:49.851Z,1.70
2022-11-06T20:35:52.795Z,1.87
2022-11-06T20:40:56.979Z,1.60
2022-11-06T20:46:02.150Z,1.77
2022-11-06T20:51:07.223Z,1.67
2022-11-06T20:56:12.226Z,1.50
2022-11-06T21:01:19.692Z,2.03
2022-11-06T21:06:24.799Z,1.80
2022-11-06T21:11:28.677Z,2.13
2022-11-06T21:16:35.252Z,1.70
2022-11-06T21:21:38.365Z,2.03
2022-11-06T21:26:41.341Z,1.77
2022-11-06T21:31:49.014Z,1.70
2022-11-06T21:36:52.403Z,1.67
2022-11-06T21:41:55.395Z,1.40
2022-11-06T21:46:59.724Z,1.50
2022-11-06T21:52:16.631Z,1.70
2022-11-06T21:57:19.586Z,1.20
2022-11-06T22:02:24.047Z,1.57
2022-11-06T22:07:27.079Z,1.53
2022-11-06T22:12:30.037Z,1.70
2022-11-06T22:17:34.368Z,1.70
2022-11-06T22:22:37.300Z,1.73
2022-11-06T22:27:41.154Z,1.50
2022-11-06T22:32:45.575Z,1.67
2022-11-06T22:37:48.545Z,1.33
2022-11-06T22:42:51.550Z,1.33
2022-11-06T22:47:56.056Z,1.50
2022-11-06T22:52:58.952Z,1.40
2022-11-06T22:58:01.871Z,1.33
2022-11-06T23:03:06.480Z,1.60
2022-11-06T23:08:09.470Z,1.57
2022-11-06T23:13:12.776Z,1.50
2022-11-06T23:18:17.293Z,1.40
2022-11-06T23:23:20.335Z,1.30
2022-11-06T23:28:23.266Z,1.30
2022-11-06T23:33:27.548Z,1.33
2022-11-06T23:38:30.506Z,1.20
2022-11-06T23:43:33.451Z,1.50
2022-11-06T23:48:37.722Z,1.20
2022-11-06T23:53:40.699Z,1.30
2022-11-06T23:58:44.167Z,1.10
